Orbital elements of SBS 5
| Launched | 7 September 1988 |
| Flight ended | – |
| Launch site | Europe's Spaceport, Kourou, French Guiana |
| Owner | United States |
| NORAD ID | 19484 |
| Date fetched |
Epoch osculation |
Inc. [°] |
Ecc. | RA asc node [hr] |
Arg Peri. [°] |
Mean anom [°] |
Mean motion [rev/day] |
Abs. mag |
| Date fetched |
Epoch osculation |
Inc. [°] |
Ecc. | RA asc node [hr] |
Arg Peri. [°] |
Mean anom [°] |
Mean motion [rev/day] |
Abs. mag |
| 2026 May 06 17:57 | 2026 May 05 03:57:38 | 14.5957 | 0.00074 | 0.0839 | 327.1011 | 227.6646 | 0.99786 | – |
| 2026 May 05 17:57 | 2026 May 05 03:57:38 | 14.5957 | 0.00074 | 0.0839 | 327.1011 | 227.6646 | 0.99786 | – |
| 2026 May 04 17:57 | 2026 Apr 30 03:16:38 | 14.5946 | 0.00075 | 0.0864 | 326.6939 | 227.6646 | 0.99786 | – |
| 2026 May 03 17:57 | 2026 Apr 30 03:16:38 | 14.5946 | 0.00075 | 0.0864 | 326.6939 | 227.6646 | 0.99786 | – |
| 2026 May 02 17:57 | 2026 Apr 30 03:16:38 | 14.5946 | 0.00075 | 0.0864 | 326.6939 | 227.6646 | 0.99786 | – |
| 2026 May 01 17:56 | 2026 Apr 30 03:16:38 | 14.5946 | 0.00075 | 0.0864 | 326.6939 | 227.6646 | 0.99786 | – |
| 2026 Apr 30 17:56 | 2026 Apr 30 03:16:38 | 14.5946 | 0.00075 | 0.0864 | 326.6939 | 227.6646 | 0.99786 | – |
| 2026 Apr 29 17:57 | 2026 Apr 22 10:49:36 | 14.5929 | 0.00076 | 0.0902 | 326.7162 | 227.6646 | 0.99786 | – |
| 2026 Apr 28 17:56 | 2026 Apr 22 10:49:36 | 14.5929 | 0.00076 | 0.0902 | 326.7162 | 227.6646 | 0.99786 | – |
| 2026 Apr 27 17:58 | 2026 Apr 22 10:49:36 | 14.5929 | 0.00076 | 0.0902 | 326.7162 | 227.6646 | 0.99786 | – |
| 2026 Apr 26 17:58 | 2026 Apr 22 10:49:36 | 14.5929 | 0.00076 | 0.0902 | 326.7162 | 227.6646 | 0.99786 | – |
| 2026 Apr 25 17:58 | 2026 Apr 22 10:49:36 | 14.5929 | 0.00076 | 0.0902 | 326.7162 | 227.6646 | 0.99786 | – |
| 2026 Apr 24 17:59 | 2026 Apr 22 10:49:36 | 14.5929 | 0.00076 | 0.0902 | 326.7162 | 227.6646 | 0.99786 | – |
| 2026 Apr 23 17:57 | 2026 Apr 19 01:34:04 | 14.5924 | 0.00074 | 0.0919 | 327.3319 | 227.6646 | 0.99786 | – |
| 2026 Apr 22 17:57 | 2026 Apr 19 01:34:04 | 14.5924 | 0.00074 | 0.0919 | 327.3319 | 227.6646 | 0.99786 | – |
| 2026 Apr 21 17:57 | 2026 Apr 19 01:34:04 | 14.5924 | 0.00074 | 0.0919 | 327.3319 | 227.6646 | 0.99786 | – |
| 2026 Apr 20 17:57 | 2026 Apr 19 01:34:04 | 14.5924 | 0.00074 | 0.0919 | 327.3319 | 227.6646 | 0.99786 | – |
| 2026 Apr 19 17:58 | 2026 Apr 19 01:34:04 | 14.5924 | 0.00074 | 0.0919 | 327.3319 | 227.6646 | 0.99786 | – |
| 2026 Apr 18 17:56 | 2026 Apr 13 01:54:50 | 14.5914 | 0.00080 | 0.0950 | 323.7616 | 227.6646 | 0.99786 | – |
| 2026 Apr 16 17:57 | 2026 Apr 13 01:54:50 | 14.5914 | 0.00080 | 0.0950 | 323.7616 | 227.6646 | 0.99786 | – |
| 2026 Apr 14 17:57 | 2026 Apr 13 01:54:50 | 14.5914 | 0.00080 | 0.0950 | 323.7616 | 227.6646 | 0.99786 | – |
| 2026 Apr 13 17:57 | 2026 Apr 13 01:54:50 | 14.5914 | 0.00080 | 0.0950 | 323.7616 | 227.6646 | 0.99786 | – |
| 2026 Apr 12 17:57 | 2026 Apr 08 02:09:53 | 14.5903 | 0.00081 | 0.0974 | 322.2523 | 227.6646 | 0.99786 | – |
| 2026 Apr 11 17:57 | 2026 Apr 08 02:09:53 | 14.5903 | 0.00081 | 0.0974 | 322.2523 | 227.6646 | 0.99786 | – |
| 2026 Apr 10 17:58 | 2026 Apr 08 02:09:53 | 14.5903 | 0.00081 | 0.0974 | 322.2523 | 227.6646 | 0.99786 | – |
| 2026 Apr 09 18:01 | 2026 Apr 08 02:09:53 | 14.5903 | 0.00081 | 0.0974 | 322.2523 | 227.6646 | 0.99786 | – |